Skip Navigation Links
NOAA logo - Click to go to the NOAA homepage
NOAA's National Weather Service
Alaska Aviation Weather Unit
  NWS logo - Click to go to the NWS homepage
Left Navbar Graphic     03 AKDT = 11 GMT

   
NOAA is celebrating 200 years of science, service, and stewardship. Visit the NOAA 200th celebration Web site to learn more.
USA.gov is the U.S. Government's official Web portal to all Federal, state and local government Web resources and services.
Facebook
NWS on Facebook

AAWU Home :: Display TAF Add Bookmark
TAF PATK 290943Z 2910/3006 VRB02KT 3SM -SN SCT025 OVC035
      TEMPO 2910/2914 2SM -SN OVC025
     FM291400 VRB03KT 2SM -SN OVC020
     FM292100 VRB03KT P6SM SCT020 BKN050=

METAR PATK 290553Z AUTO 00000KT 7SM BKN041 OVC065 M01/M02 A2949 RMK AO2 SLP993 60000 T10061017 10044 21006 51015 TSNO= METAR PATK 290653Z AUTO 00000KT 10SM BKN037 OVC055 M01/M02 A2950 RMK AO2 SLP995 T10111022 TSNO= PATK 290749Z AUTO 00000KT 2SM -SN BR OVC038 M01/M02 A2950= METAR PATK 290753Z AUTO 00000KT 2SM -SN BR OVC036 M01/M02 A2950 RMK AO2 SNB35 SLP997 P0000 T10061017 TSNO= PATK 290807Z AUTO 00000KT 2SM -SN BR OVC026 M01/M02 A2950= PATK 290823Z AUTO 00000KT 1 3/4SM -SN BR OVC025 M01/M02 A2950= PATK 290831Z AUTO 00000KT 2SM -SN BR OVC027 M01/M02 A2950= PATK 290841Z AUTO 00000KT 3SM -SN BR OVC035 M01/M02 A2950= METAR PATK 290853Z AUTO 00000KT 3SM -SN BR OVC037 M01/M02 A2950 RMK AO2 SLP996 P0001 60001 T10061017 400441067 50002 TSNO= METAR PATK 290953Z AUTO 00000KT 3SM -SN BR OVC046 M01/M02 A2950 RMK AO2 SLP993 P0001 T10111017 TSNO= SPECI PATK 291007Z AUTO 00000KT 2SM -SN BR OVC036 M01/M02 A2949 RMK AO2 P0000 T10061017 TSNO= PATK 291048Z AUTO 00000KT 3SM -SN BR OVC038 M01/M02 A2948= METAR PATK 291053Z AUTO 00000KT 3SM -SN BR OVC037 M01/M02 A2948 RMK SLP989 P0000 T10061017 TSNO VIA AUTODIAL=
 Alaska TAF Map

NOAA's National Weather Service
Alaska Aviation Weather Unit
6930 Sand Lake Road
Anchorage, AK 99502-1845
Disclaimer
Credits
Glossary
Privacy Policy
About Us
Career Opportunities
Contact AAWU Internet Services Site last modified: April, 17th 2012